sensor_id;sensor_type;location;lat;lon;timestamp;pressure;altitude;pressure_sealevel;temperature;humidity
4834;BME280;12895;51.064;7.028;2023-08-20T00:01:12;101182.94;;;22.27;80.45
4834;BME280;12895;51.064;7.028;2023-08-20T00:03:58;101177.56;;;22.16;81.51
4834;BME280;12895;51.064;7.028;2023-08-20T00:06:44;101184.38;;;22.07;81.99
4834;BME280;12895;51.064;7.028;2023-08-20T00:09:32;101179.63;;;22.02;81.96
4834;BME280;12895;51.064;7.028;2023-08-20T00:12:20;101190.56;;;22.06;82.22
4834;BME280;12895;51.064;7.028;2023-08-20T00:15:13;101194.44;;;22.03;82.14
4834;BME280;12895;51.064;7.028;2023-08-20T00:18:05;101193.03;;;21.96;82.07
4834;BME280;12895;51.064;7.028;2023-08-20T00:21:14;101187.31;;;21.89;82.58
4834;BME280;12895;51.064;7.028;2023-08-20T00:24:29;101192.63;;;21.92;82.02
4834;BME280;12895;51.064;7.028;2023-08-20T00:27:16;101199.88;;;22.01;81.42
4834;BME280;12895;51.064;7.028;2023-08-20T00:30:15;101209.59;;;22.13;81.71
4834;BME280;12895;51.064;7.028;2023-08-20T00:33:06;101195.50;;;22.13;81.69
4834;BME280;12895;51.064;7.028;2023-08-20T00:36:07;101192.81;;;22.07;81.22
4834;BME280;12895;51.064;7.028;2023-08-20T00:39:00;101204.94;;;22.15;82.14
4834;BME280;12895;51.064;7.028;2023-08-20T00:41:49;101203.00;;;22.10;82.03
4834;BME280;12895;51.064;7.028;2023-08-20T00:44:44;101215.47;;;22.15;81.23
4834;BME280;12895;51.064;7.028;2023-08-20T00:47:29;101201.81;;;22.06;80.99
4834;BME280;12895;51.064;7.028;2023-08-20T00:50:18;101213.50;;;22.10;81.30
4834;BME280;12895;51.064;7.028;2023-08-20T00:53:04;101213.09;;;22.06;81.37
4834;BME280;12895;51.064;7.028;2023-08-20T00:55:55;101197.28;;;21.77;82.35
4834;BME280;12895;51.064;7.028;2023-08-20T00:58:43;101204.31;;;21.83;82.26
4834;BME280;12895;51.064;7.028;2023-08-20T01:01:43;101186.91;;;21.85;82.08
4834;BME280;12895;51.064;7.028;2023-08-20T01:04:32;101180.94;;;21.75;82.36
4834;BME280;12895;51.064;7.028;2023-08-20T01:07:30;101191.88;;;21.79;82.65
4834;BME280;12895;51.064;7.028;2023-08-20T01:10:33;101191.22;;;21.73;82.47
4834;BME280;12895;51.064;7.028;2023-08-20T01:13:26;101189.28;;;21.68;83.08
4834;BME280;12895;51.064;7.028;2023-08-20T01:16:13;101173.13;;;21.55;83.09
4834;BME280;12895;51.064;7.028;2023-08-20T01:19:03;101165.88;;;21.60;83.75
4834;BME280;12895;51.064;7.028;2023-08-20T01:22:13;101157.22;;;21.58;82.98
4834;BME280;12895;51.064;7.028;2023-08-20T01:25:09;101162.41;;;21.54;82.99
4834;BME280;12895;51.064;7.028;2023-08-20T01:28:04;101157.75;;;21.56;82.41
4834;BME280;12895;51.064;7.028;2023-08-20T01:30:56;101177.97;;;21.55;82.75
4834;BME280;12895;51.064;7.028;2023-08-20T01:33:42;101179.41;;;21.61;82.22
4834;BME280;12895;51.064;7.028;2023-08-20T01:36:28;101181.91;;;21.65;82.24
4834;BME280;12895;51.064;7.028;2023-08-20T01:39:22;101177.56;;;21.51;82.97
4834;BME280;12895;51.064;7.028;2023-08-20T01:42:11;101170.63;;;21.52;82.55
4834;BME280;12895;51.064;7.028;2023-08-20T01:44:59;101169.00;;;21.56;81.91
4834;BME280;12895;51.064;7.028;2023-08-20T01:47:48;101179.72;;;21.58;82.28
4834;BME280;12895;51.064;7.028;2023-08-20T01:50:35;101199.59;;;21.34;83.06
4834;BME280;12895;51.064;7.028;2023-08-20T01:53:23;101197.97;;;21.25;83.23
4834;BME280;12895;51.064;7.028;2023-08-20T01:56:12;101199.16;;;21.30;83.66
4834;BME280;12895;51.064;7.028;2023-08-20T01:58:58;101212.34;;;21.22;83.75
4834;BME280;12895;51.064;7.028;2023-08-20T02:01:44;101211.34;;;21.19;83.83
4834;BME280;12895;51.064;7.028;2023-08-20T02:04:31;101213.94;;;21.17;83.99
4834;BME280;12895;51.064;7.028;2023-08-20T02:07:16;101197.56;;;21.03;84.19
4834;BME280;12895;51.064;7.028;2023-08-20T02:10:04;101210.16;;;21.15;84.04
4834;BME280;12895;51.064;7.028;2023-08-20T02:12:50;101204.09;;;21.11;83.87
4834;BME280;12895;51.064;7.028;2023-08-20T02:15:36;101206.50;;;21.20;83.88
4834;BME280;12895;51.064;7.028;2023-08-20T02:18:21;101204.97;;;21.19;83.95
4834;BME280;12895;51.064;7.028;2023-08-20T02:21:08;101215.56;;;21.26;83.88
4834;BME280;12895;51.064;7.028;2023-08-20T02:23:54;101222.47;;;21.12;84.35
4834;BME280;12895;51.064;7.028;2023-08-20T02:26:39;101214.72;;;21.18;84.13
4834;BME280;12895;51.064;7.028;2023-08-20T02:29:24;101219.69;;;21.25;84.14
4834;BME280;12895;51.064;7.028;2023-08-20T02:32:10;101224.25;;;21.28;83.83
4834;BME280;12895;51.064;7.028;2023-08-20T02:34:56;101223.19;;;21.44;83.38
4834;BME280;12895;51.064;7.028;2023-08-20T02:37:45;101231.53;;;21.49;83.12
4834;BME280;12895;51.064;7.028;2023-08-20T02:40:31;101232.50;;;21.52;82.47
4834;BME280;12895;51.064;7.028;2023-08-20T02:43:17;101234.16;;;21.60;81.62
4834;BME280;12895;51.064;7.028;2023-08-20T02:46:02;101240.06;;;21.44;82.36
4834;BME280;12895;51.064;7.028;2023-08-20T02:48:47;101243.75;;;21.52;82.04
4834;BME280;12895;51.064;7.028;2023-08-20T02:51:35;101245.94;;;21.59;81.89
4834;BME280;12895;51.064;7.028;2023-08-20T02:54:22;101252.31;;;21.59;82.54
4834;BME280;12895;51.064;7.028;2023-08-20T02:57:11;101247.88;;;21.64;82.11
4834;BME280;12895;51.064;7.028;2023-08-20T02:59:57;101254.00;;;21.68;82.23
4834;BME280;12895;51.064;7.028;2023-08-20T03:02:43;101243.56;;;21.63;83.54
4834;BME280;12895;51.064;7.028;2023-08-20T03:05:32;101246.63;;;21.65;83.34
4834;BME280;12895;51.064;7.028;2023-08-20T03:08:27;101236.19;;;21.60;82.92
4834;BME280;12895;51.064;7.028;2023-08-20T03:11:17;101246.47;;;21.57;83.15
4834;BME280;12895;51.064;7.028;2023-08-20T03:14:11;101246.63;;;21.65;83.05
4834;BME280;12895;51.064;7.028;2023-08-20T03:16:59;101245.28;;;21.53;83.46
4834;BME280;12895;51.064;7.028;2023-08-20T03:19:54;101241.81;;;21.47;83.93
4834;BME280;12895;51.064;7.028;2023-08-20T03:22:40;101245.47;;;21.42;84.32
4834;BME280;12895;51.064;7.028;2023-08-20T03:25:26;101255.63;;;21.45;84.69
4834;BME280;12895;51.064;7.028;2023-08-20T03:28:13;101251.16;;;21.23;84.92
4834;BME280;12895;51.064;7.028;2023-08-20T03:31:00;101243.53;;;21.37;84.91
4834;BME280;12895;51.064;7.028;2023-08-20T03:33:51;101239.19;;;21.36;84.91
4834;BME280;12895;51.064;7.028;2023-08-20T03:36:41;101244.63;;;21.47;84.37
4834;BME280;12895;51.064;7.028;2023-08-20T03:39:32;101252.59;;;21.43;84.33
4834;BME280;12895;51.064;7.028;2023-08-20T03:42:18;101257.19;;;21.46;83.74
4834;BME280;12895;51.064;7.028;2023-08-20T03:45:09;101250.34;;;21.41;84.02
4834;BME280;12895;51.064;7.028;2023-08-20T03:47:55;101255.84;;;21.34;83.75
4834;BME280;12895;51.064;7.028;2023-08-20T03:50:40;101259.94;;;21.33;84.71
4834;BME280;12895;51.064;7.028;2023-08-20T03:53:26;101250.66;;;21.38;83.87
4834;BME280;12895;51.064;7.028;2023-08-20T03:56:14;101267.28;;;21.36;84.86
4834;BME280;12895;51.064;7.028;2023-08-20T03:59:02;101273.16;;;21.38;83.55
4834;BME280;12895;51.064;7.028;2023-08-20T04:01:49;101273.84;;;21.57;82.22
4834;BME280;12895;51.064;7.028;2023-08-20T04:04:35;101266.78;;;21.50;83.45
4834;BME280;12895;51.064;7.028;2023-08-20T04:07:24;101278.00;;;21.37;84.14
4834;BME280;12895;51.064;7.028;2023-08-20T04:10:13;101284.41;;;21.38;83.72
4834;BME280;12895;51.064;7.028;2023-08-20T04:12:59;101294.28;;;21.44;84.11
4834;BME280;12895;51.064;7.028;2023-08-20T04:15:46;101290.69;;;21.44;84.46
4834;BME280;12895;51.064;7.028;2023-08-20T04:18:36;101293.19;;;21.47;83.78
4834;BME280;12895;51.064;7.028;2023-08-20T04:21:22;101297.88;;;21.58;83.65
4834;BME280;12895;51.064;7.028;2023-08-20T04:24:08;101291.63;;;21.65;83.73
4834;BME280;12895;51.064;7.028;2023-08-20T04:26:53;101302.41;;;21.48;84.35
4834;BME280;12895;51.064;7.028;2023-08-20T04:29:44;101294.59;;;21.54;84.78
4834;BME280;12895;51.064;7.028;2023-08-20T04:32:32;101292.41;;;21.65;84.12
4834;BME280;12895;51.064;7.028;2023-08-20T04:35:23;101288.34;;;21.48;85.04
4834;BME280;12895;51.064;7.028;2023-08-20T04:38:19;101289.06;;;21.48;85.33
4834;BME280;12895;51.064;7.028;2023-08-20T04:41:08;101285.47;;;21.35;85.55
4834;BME280;12895;51.064;7.028;2023-08-20T04:44:05;101281.53;;;21.25;85.47
4834;BME280;12895;51.064;7.028;2023-08-20T04:47:00;101274.59;;;21.13;85.80
4834;BME280;12895;51.064;7.028;2023-08-20T04:49:59;101303.59;;;21.21;85.59
4834;BME280;12895;51.064;7.028;2023-08-20T04:53:14;101310.03;;;21.34;84.57
4834;BME280;12895;51.064;7.028;2023-08-20T04:56:05;101311.66;;;21.43;85.04
4834;BME280;12895;51.064;7.028;2023-08-20T04:58:53;101311.66;;;21.43;85.53
4834;BME280;12895;51.064;7.028;2023-08-20T05:02:14;101300.81;;;21.34;85.30
4834;BME280;12895;51.064;7.028;2023-08-20T05:05:08;101303.84;;;21.36;86.05
4834;BME280;12895;51.064;7.028;2023-08-20T05:07:57;101316.19;;;21.33;85.67
4834;BME280;12895;51.064;7.028;2023-08-20T05:10:56;101313.59;;;21.35;85.61
4834;BME280;12895;51.064;7.028;2023-08-20T05:13:54;101302.69;;;21.31;85.63
4834;BME280;12895;51.064;7.028;2023-08-20T05:16:43;101315.78;;;21.42;85.62
4834;BME280;12895;51.064;7.028;2023-08-20T05:19:41;101315.56;;;21.40;85.61
4834;BME280;12895;51.064;7.028;2023-08-20T05:22:30;101308.56;;;21.46;85.81
4834;BME280;12895;51.064;7.028;2023-08-20T05:25:33;101327.25;;;21.44;86.00
4834;BME280;12895;51.064;7.028;2023-08-20T05:28:22;101332.25;;;21.51;85.00
4834;BME280;12895;51.064;7.028;2023-08-20T05:31:18;101324.72;;;21.59;85.16
4834;BME280;12895;51.064;7.028;2023-08-20T05:34:14;101307.13;;;21.71;84.93
4834;BME280;12895;51.064;7.028;2023-08-20T05:37:01;101308.34;;;21.76;83.81
4834;BME280;12895;51.064;7.028;2023-08-20T05:39:51;101312.56;;;21.82;83.58
4834;BME280;12895;51.064;7.028;2023-08-20T05:42:45;101322.09;;;21.92;82.61
4834;BME280;12895;51.064;7.028;2023-08-20T05:45:45;101317.00;;;21.91;82.70
4834;BME280;12895;51.064;7.028;2023-08-20T05:48:41;101337.47;;;21.91;82.62
4834;BME280;12895;51.064;7.028;2023-08-20T05:51:43;101322.41;;;21.89;81.92
4834;BME280;12895;51.064;7.028;2023-08-20T05:54:36;101317.31;;;21.87;81.59
4834;BME280;12895;51.064;7.028;2023-08-20T05:57:27;101324.59;;;21.96;82.20
4834;BME280;12895;51.064;7.028;2023-08-20T06:00:31;101319.19;;;21.98;82.81
4834;BME280;12895;51.064;7.028;2023-08-20T06:03:23;101317.69;;;21.97;83.08
4834;BME280;12895;51.064;7.028;2023-08-20T06:06:19;101326.75;;;22.03;83.57
4834;BME280;12895;51.064;7.028;2023-08-20T06:09:04;101335.44;;;22.18;82.52
4834;BME280;12895;51.064;7.028;2023-08-20T06:11:57;101330.66;;;22.13;81.67
4834;BME280;12895;51.064;7.028;2023-08-20T06:14:48;101313.97;;;22.02;83.52
4834;BME280;12895;51.064;7.028;2023-08-20T06:17:43;101325.69;;;22.06;83.67
4834;BME280;12895;51.064;7.028;2023-08-20T06:20:35;101326.75;;;22.03;83.32
4834;BME280;12895;51.064;7.028;2023-08-20T06:23:29;101332.38;;;22.03;82.72
4834;BME280;12895;51.064;7.028;2023-08-20T06:26:20;101324.50;;;22.14;82.28
4834;BME280;12895;51.064;7.028;2023-08-20T06:29:11;101346.28;;;22.27;82.70
4834;BME280;12895;51.064;7.028;2023-08-20T06:32:06;101342.38;;;22.30;82.85
4834;BME280;12895;51.064;7.028;2023-08-20T06:35:07;101347.56;;;22.39;82.24
4834;BME280;12895;51.064;7.028;2023-08-20T06:38:02;101325.28;;;22.41;82.02
4834;BME280;12895;51.064;7.028;2023-08-20T06:40:58;101328.53;;;22.45;82.16
4834;BME280;12895;51.064;7.028;2023-08-20T06:43:45;101326.69;;;22.47;82.15
4834;BME280;12895;51.064;7.028;2023-08-20T06:46:43;101339.03;;;22.57;80.94
4834;BME280;12895;51.064;7.028;2023-08-20T06:49:45;101325.91;;;22.60;80.26
4834;BME280;12895;51.064;7.028;2023-08-20T06:52:42;101327.75;;;22.70;80.12
4834;BME280;12895;51.064;7.028;2023-08-20T06:55:29;101337.25;;;22.80;80.52
4834;BME280;12895;51.064;7.028;2023-08-20T06:58:17;101332.81;;;22.84;80.42
4834;BME280;12895;51.064;7.028;2023-08-20T07:01:14;101332.47;;;22.88;80.62
4834;BME280;12895;51.064;7.028;2023-08-20T07:04:02;101344.94;;;22.92;79.81
4834;BME280;12895;51.064;7.028;2023-08-20T07:06:48;101338.84;;;23.01;78.92
4834;BME280;12895;51.064;7.028;2023-08-20T07:09:33;101343.56;;;23.06;78.58
4834;BME280;12895;51.064;7.028;2023-08-20T07:12:20;101341.16;;;23.23;78.33
4834;BME280;12895;51.064;7.028;2023-08-20T07:15:06;101344.19;;;23.25;78.46
4834;BME280;12895;51.064;7.028;2023-08-20T07:17:52;101340.06;;;23.26;78.46
4834;BME280;12895;51.064;7.028;2023-08-20T07:20:56;101332.03;;;23.30;77.31
4834;BME280;12895;51.064;7.028;2023-08-20T07:23:41;101343.25;;;23.43;77.04
4834;BME280;12895;51.064;7.028;2023-08-20T07:26:27;101342.38;;;23.48;75.86
4834;BME280;12895;51.064;7.028;2023-08-20T07:29:14;101351.94;;;23.86;74.51
4834;BME280;12895;51.064;7.028;2023-08-20T07:32:00;101348.34;;;24.06;73.57
4834;BME280;12895;51.064;7.028;2023-08-20T07:34:47;101344.00;;;24.05;73.59
4834;BME280;12895;51.064;7.028;2023-08-20T07:37:34;101345.38;;;24.12;72.71
4834;BME280;12895;51.064;7.028;2023-08-20T07:40:25;101346.06;;;24.05;71.77
4834;BME280;12895;51.064;7.028;2023-08-20T07:43:12;101337.31;;;23.95;72.16
4834;BME280;12895;51.064;7.028;2023-08-20T07:46:10;101339.94;;;23.93;73.07
4834;BME280;12895;51.064;7.028;2023-08-20T07:48:56;101353.25;;;23.85;73.57
4834;BME280;12895;51.064;7.028;2023-08-20T07:51:42;101343.78;;;24.03;73.60
4834;BME280;12895;51.064;7.028;2023-08-20T07:54:27;101350.22;;;24.32;73.42
4834;BME280;12895;51.064;7.028;2023-08-20T07:57:12;101362.91;;;24.46;72.74
4834;BME280;12895;51.064;7.028;2023-08-20T07:59:58;101357.91;;;24.31;73.25
4834;BME280;12895;51.064;7.028;2023-08-20T08:02:45;101360.56;;;24.29;73.81
4834;BME280;12895;51.064;7.028;2023-08-20T08:05:30;101364.19;;;24.37;73.41
4834;BME280;12895;51.064;7.028;2023-08-20T08:08:15;101363.06;;;24.40;73.81
4834;BME280;12895;51.064;7.028;2023-08-20T08:11:01;101365.06;;;24.32;73.50
4834;BME280;12895;51.064;7.028;2023-08-20T08:13:46;101365.19;;;24.47;73.71
4834;BME280;12895;51.064;7.028;2023-08-20T08:16:32;101379.31;;;24.47;72.86
4834;BME280;12895;51.064;7.028;2023-08-20T08:19:19;101382.72;;;24.53;71.97
4834;BME280;12895;51.064;7.028;2023-08-20T08:22:04;101378.16;;;24.71;70.91
4834;BME280;12895;51.064;7.028;2023-08-20T08:24:50;101379.13;;;24.45;71.92
4834;BME280;12895;51.064;7.028;2023-08-20T08:27:35;101379.91;;;24.53;72.81
4834;BME280;12895;51.064;7.028;2023-08-20T08:30:20;101372.41;;;24.56;71.24
4834;BME280;12895;51.064;7.028;2023-08-20T08:33:06;101380.72;;;24.61;72.00
4834;BME280;12895;51.064;7.028;2023-08-20T08:35:53;101377.06;;;24.53;72.69
4834;BME280;12895;51.064;7.028;2023-08-20T08:38:40;101381.84;;;24.58;73.21
4834;BME280;12895;51.064;7.028;2023-08-20T08:41:28;101366.19;;;24.93;72.30
4834;BME280;12895;51.064;7.028;2023-08-20T08:44:27;101368.50;;;25.09;70.45
4834;BME280;12895;51.064;7.028;2023-08-20T08:47:21;101360.09;;;24.81;71.86
4834;BME280;12895;51.064;7.028;2023-08-20T08:50:15;101369.97;;;24.95;70.72
4834;BME280;12895;51.064;7.028;2023-08-20T08:53:02;101367.66;;;24.86;71.72
4834;BME280;12895;51.064;7.028;2023-08-20T08:55:50;101362.47;;;25.05;69.93
4834;BME280;12895;51.064;7.028;2023-08-20T08:58:49;101361.69;;;24.97;69.33
4834;BME280;12895;51.064;7.028;2023-08-20T09:01:38;101358.69;;;25.10;69.96
4834;BME280;12895;51.064;7.028;2023-08-20T09:04:25;101350.66;;;25.29;68.09
4834;BME280;12895;51.064;7.028;2023-08-20T09:07:12;101358.59;;;25.23;68.11
4834;BME280;12895;51.064;7.028;2023-08-20T09:09:59;101355.78;;;25.38;67.63
4834;BME280;12895;51.064;7.028;2023-08-20T09:12:47;101359.75;;;25.50;68.05
4834;BME280;12895;51.064;7.028;2023-08-20T09:15:33;101364.13;;;25.51;67.85
4834;BME280;12895;51.064;7.028;2023-08-20T09:18:20;101367.50;;;25.42;66.96
4834;BME280;12895;51.064;7.028;2023-08-20T09:21:07;101367.09;;;25.38;68.34
4834;BME280;12895;51.064;7.028;2023-08-20T09:23:57;101371.41;;;25.24;69.73
4834;BME280;12895;51.064;7.028;2023-08-20T09:27:03;101372.22;;;25.40;68.46
4834;BME280;12895;51.064;7.028;2023-08-20T09:29:55;101372.03;;;25.60;67.25
4834;BME280;12895;51.064;7.028;2023-08-20T09:32:43;101362.63;;;25.65;68.77
4834;BME280;12895;51.064;7.028;2023-08-20T09:35:51;101369.41;;;25.77;66.16
4834;BME280;12895;51.064;7.028;2023-08-20T09:38:46;101378.50;;;25.83;65.53
4834;BME280;12895;51.064;7.028;2023-08-20T09:41:35;101378.88;;;25.87;64.59
4834;BME280;12895;51.064;7.028;2023-08-20T09:44:24;101379.59;;;25.58;65.56
4834;BME280;12895;51.064;7.028;2023-08-20T09:47:12;101382.63;;;25.52;66.18
4834;BME280;12895;51.064;7.028;2023-08-20T09:49:57;101387.16;;;25.85;64.57
4834;BME280;12895;51.064;7.028;2023-08-20T09:52:47;101387.16;;;25.70;64.88
4834;BME280;12895;51.064;7.028;2023-08-20T09:55:35;101383.00;;;25.64;64.05
4834;BME280;12895;51.064;7.028;2023-08-20T09:58:23;101378.47;;;25.68;62.61
4834;BME280;12895;51.064;7.028;2023-08-20T10:01:21;101387.56;;;26.26;60.34
4834;BME280;12895;51.064;7.028;2023-08-20T10:04:10;101387.50;;;26.64;60.42
4834;BME280;12895;51.064;7.028;2023-08-20T10:07:00;101390.06;;;26.92;61.71
4834;BME280;12895;51.064;7.028;2023-08-20T10:09:46;101391.63;;;26.78;61.90
4834;BME280;12895;51.064;7.028;2023-08-20T10:12:32;101385.16;;;26.85;60.57
4834;BME280;12895;51.064;7.028;2023-08-20T10:15:18;101381.88;;;27.03;59.91
4834;BME280;12895;51.064;7.028;2023-08-20T10:18:07;101388.81;;;27.17;59.43
4834;BME280;12895;51.064;7.028;2023-08-20T10:20:53;101399.91;;;26.91;60.63
4834;BME280;12895;51.064;7.028;2023-08-20T10:23:40;101393.88;;;26.79;59.52
4834;BME280;12895;51.064;7.028;2023-08-20T10:26:29;101388.13;;;27.02;58.18
4834;BME280;12895;51.064;7.028;2023-08-20T10:29:37;101385.78;;;27.23;58.19
4834;BME280;12895;51.064;7.028;2023-08-20T10:32:45;101383.06;;;27.32;58.49
4834;BME280;12895;51.064;7.028;2023-08-20T10:35:48;101375.56;;;27.52;59.52
4834;BME280;12895;51.064;7.028;2023-08-20T10:38:44;101384.78;;;28.09;57.01
4834;BME280;12895;51.064;7.028;2023-08-20T10:41:40;101375.41;;;27.99;58.00
4834;BME280;12895;51.064;7.028;2023-08-20T10:44:59;101375.13;;;28.29;54.51
4834;BME280;12895;51.064;7.028;2023-08-20T10:48:09;101384.50;;;28.22;53.47
4834;BME280;12895;51.064;7.028;2023-08-20T10:51:29;101376.25;;;27.35;55.98
4834;BME280;12895;51.064;7.028;2023-08-20T10:54:32;101386.38;;;27.78;55.31
4834;BME280;12895;51.064;7.028;2023-08-20T10:57:38;101382.41;;;27.73;55.27
4834;BME280;12895;51.064;7.028;2023-08-20T11:01:02;101382.28;;;27.39;56.15
4834;BME280;12895;51.064;7.028;2023-08-20T11:04:05;101377.13;;;27.70;54.94
4834;BME280;12895;51.064;7.028;2023-08-20T11:07:08;101381.31;;;27.69;55.23
4834;BME280;12895;51.064;7.028;2023-08-20T11:10:15;101391.44;;;27.87;54.67
4834;BME280;12895;51.064;7.028;2023-08-20T11:13:34;101378.44;;;27.76;55.13
4834;BME280;12895;51.064;7.028;2023-08-20T11:16:32;101388.25;;;28.24;53.17
4834;BME280;12895;51.064;7.028;2023-08-20T11:19:28;101377.34;;;28.38;52.83
4834;BME280;12895;51.064;7.028;2023-08-20T11:22:24;101371.88;;;28.32;51.78
4834;BME280;12895;51.064;7.028;2023-08-20T11:25:18;101375.63;;;28.18;51.86
4834;BME280;12895;51.064;7.028;2023-08-20T11:28:23;101365.91;;;28.04;52.79
4834;BME280;12895;51.064;7.028;2023-08-20T11:31:13;101373.19;;;27.97;53.27
4834;BME280;12895;51.064;7.028;2023-08-20T11:34:11;101362.16;;;27.77;53.59
4834;BME280;12895;51.064;7.028;2023-08-20T11:36:56;101360.81;;;27.78;54.12
4834;BME280;12895;51.064;7.028;2023-08-20T11:39:47;101372.75;;;28.01;54.11
4834;BME280;12895;51.064;7.028;2023-08-20T11:42:33;101364.94;;;28.26;54.72
4834;BME280;12895;51.064;7.028;2023-08-20T11:45:19;101358.28;;;28.48;53.40
4834;BME280;12895;51.064;7.028;2023-08-20T11:48:09;101370.69;;;28.60;49.81
4834;BME280;12895;51.064;7.028;2023-08-20T11:50:56;101360.09;;;28.87;48.17
4834;BME280;12895;51.064;7.028;2023-08-20T11:53:49;101369.97;;;28.69;48.52
4834;BME280;12895;51.064;7.028;2023-08-20T11:56:44;101362.47;;;28.81;49.16
4834;BME280;12895;51.064;7.028;2023-08-20T11:59:30;101359.59;;;28.98;49.00
4834;BME280;12895;51.064;7.028;2023-08-20T12:02:24;101361.59;;;29.04;49.26
4834;BME280;12895;51.064;7.028;2023-08-20T12:05:23;101357.38;;;29.22;48.57
4834;BME280;12895;51.064;7.028;2023-08-20T12:08:19;101357.16;;;29.37;46.46
4834;BME280;12895;51.064;7.028;2023-08-20T12:11:13;101355.81;;;29.74;45.77
4834;BME280;12895;51.064;7.028;2023-08-20T12:14:12;101356.81;;;29.60;45.65
4834;BME280;12895;51.064;7.028;2023-08-20T12:17:05;101338.41;;;28.91;49.68
4834;BME280;12895;51.064;7.028;2023-08-20T12:19:54;101349.56;;;28.97;47.81
4834;BME280;12895;51.064;7.028;2023-08-20T12:22:52;101351.25;;;29.00;48.94
4834;BME280;12895;51.064;7.028;2023-08-20T12:25:50;101349.03;;;29.07;49.33
4834;BME280;12895;51.064;7.028;2023-08-20T12:28:51;101351.91;;;29.43;49.95
4834;BME280;12895;51.064;7.028;2023-08-20T12:31:50;101348.63;;;29.73;48.63
4834;BME280;12895;51.064;7.028;2023-08-20T12:34:41;101348.81;;;29.49;47.41
4834;BME280;12895;51.064;7.028;2023-08-20T12:37:29;101352.53;;;29.42;48.18
4834;BME280;12895;51.064;7.028;2023-08-20T12:40:15;101345.13;;;29.29;49.40
4834;BME280;12895;51.064;7.028;2023-08-20T12:43:00;101351.66;;;29.75;47.19
4834;BME280;12895;51.064;7.028;2023-08-20T12:45:52;101334.81;;;29.34;46.65
4834;BME280;12895;51.064;7.028;2023-08-20T12:48:45;101323.28;;;29.41;48.25
4834;BME280;12895;51.064;7.028;2023-08-20T12:51:40;101329.09;;;29.60;46.78
4834;BME280;12895;51.064;7.028;2023-08-20T12:54:28;101327.94;;;29.73;45.56
4834;BME280;12895;51.064;7.028;2023-08-20T12:57:13;101328.34;;;29.33;47.64
4834;BME280;12895;51.064;7.028;2023-08-20T13:00:05;101327.66;;;29.78;46.79
4834;BME280;12895;51.064;7.028;2023-08-20T13:02:56;101329.38;;;29.28;46.99
4834;BME280;12895;51.064;7.028;2023-08-20T13:05:52;101320.25;;;29.56;47.19
4834;BME280;12895;51.064;7.028;2023-08-20T13:08:43;101319.34;;;29.63;47.45
4834;BME280;12895;51.064;7.028;2023-08-20T13:11:33;101329.63;;;29.85;45.51
4834;BME280;12895;51.064;7.028;2023-08-20T13:14:32;101322.97;;;29.73;46.99
4834;BME280;12895;51.064;7.028;2023-08-20T13:17:45;101314.91;;;29.79;46.99
4834;BME280;12895;51.064;7.028;2023-08-20T13:20:44;101315.31;;;30.12;45.63
4834;BME280;12895;51.064;7.028;2023-08-20T13:23:43;101316.94;;;30.05;44.51
4834;BME280;12895;51.064;7.028;2023-08-20T13:26:43;101318.09;;;30.02;43.31
4834;BME280;12895;51.064;7.028;2023-08-20T13:29:34;101317.09;;;30.17;42.31
4834;BME280;12895;51.064;7.028;2023-08-20T13:32:33;101322.13;;;29.90;45.01
4834;BME280;12895;51.064;7.028;2023-08-20T13:35:35;101322.16;;;29.99;45.71
4834;BME280;12895;51.064;7.028;2023-08-20T13:38:44;101323.31;;;29.87;44.35
4834;BME280;12895;51.064;7.028;2023-08-20T13:41:58;101317.09;;;30.17;44.83
4834;BME280;12895;51.064;7.028;2023-08-20T13:45:18;101320.72;;;30.17;43.03
4834;BME280;12895;51.064;7.028;2023-08-20T13:48:33;101321.00;;;30.21;43.13
4834;BME280;12895;51.064;7.028;2023-08-20T13:55:41;101329.75;;;30.71;43.74
4834;BME280;12895;51.064;7.028;2023-08-20T13:59:04;101306.47;;;30.74;44.26
4834;BME280;12895;51.064;7.028;2023-08-20T14:02:00;101321.75;;;30.88;45.63
4834;BME280;12895;51.064;7.028;2023-08-20T14:04:58;101312.84;;;31.22;43.82
4834;BME280;12895;51.064;7.028;2023-08-20T14:07:52;101307.06;;;30.82;43.87
4834;BME280;12895;51.064;7.028;2023-08-20T14:10:39;101310.94;;;30.58;44.83
4834;BME280;12895;51.064;7.028;2023-08-20T14:13:24;101318.59;;;30.56;44.92
4834;BME280;12895;51.064;7.028;2023-08-20T14:16:22;101320.25;;;30.49;44.65
4834;BME280;12895;51.064;7.028;2023-08-20T14:19:12;101312.44;;;30.59;47.09
4834;BME280;12895;51.064;7.028;2023-08-20T14:22:03;101311.50;;;31.04;44.48
4834;BME280;12895;51.064;7.028;2023-08-20T14:24:53;101306.22;;;31.20;46.30
4834;BME280;12895;51.064;7.028;2023-08-20T14:27:43;101314.66;;;31.48;43.90
4834;BME280;12895;51.064;7.028;2023-08-20T14:30:35;101301.75;;;31.47;45.22
4834;BME280;12895;51.064;7.028;2023-08-20T14:33:27;101304.97;;;31.72;43.65
4834;BME280;12895;51.064;7.028;2023-08-20T14:36:14;101298.38;;;31.60;45.20
4834;BME280;12895;51.064;7.028;2023-08-20T14:39:05;101308.63;;;31.23;44.72
4834;BME280;12895;51.064;7.028;2023-08-20T14:41:53;101302.34;;;30.96;44.07
4834;BME280;12895;51.064;7.028;2023-08-20T14:44:43;101293.16;;;31.07;46.37
4834;BME280;12895;51.064;7.028;2023-08-20T14:47:42;101296.31;;;31.51;43.67
4834;BME280;12895;51.064;7.028;2023-08-20T14:50:47;101293.69;;;31.95;43.04
4834;BME280;12895;51.064;7.028;2023-08-20T14:54:08;101294.44;;;32.70;41.61
4834;BME280;12895;51.064;7.028;2023-08-20T14:57:22;101287.50;;;33.63;39.63
4834;BME280;12895;51.064;7.028;2023-08-20T15:00:21;101286.06;;;34.58;38.92
4834;BME280;12895;51.064;7.028;2023-08-20T15:03:09;101285.34;;;36.01;35.92
4834;BME280;12895;51.064;7.028;2023-08-20T15:05:55;101283.00;;;37.76;32.74
4834;BME280;12895;51.064;7.028;2023-08-20T15:08:58;101283.25;;;39.39;30.97
4834;BME280;12895;51.064;7.028;2023-08-20T15:11:50;101280.19;;;41.01;27.45
4834;BME280;12895;51.064;7.028;2023-08-20T15:14:35;101276.16;;;41.61;27.70
4834;BME280;12895;51.064;7.028;2023-08-20T15:17:27;101267.63;;;41.67;25.91